Latest Weather Observations for Richmond

IDN60901

Issued at 12:51 am EDT Friday 7 October 2022 (issued every 10 minutes, with the page automatically refreshed every 10 minutes)

About weather observations | Map of Sydney area stations | Latest observations for Sydney area | Other Formats
Station Details ID: 067105 Name: RICHMOND RAAF Lat: -33.60 Lon: 150.78 Height: 19.0 m
Data from the previous 72 hours. | See also: Recent months at Richmond
Date/Time
EDT
Temp
°C
App
Temp
°C
Dew
Point
°C
Rel
Hum
%
Delta-T
°C
Wind Press
QNH
hPa
Press
MSL
hPa
Rain since
9am
mm
Dir  Spd
km/h
Gust
km/h
Spd
kts
Gust
kts
07/12:30am 15.3 17.0 15.1 99 0.1 CALM 0 0 0 0 1019.8 1019.8 0.0
07/12:00am 15.3 16.2 15.1 99 0.1 ENE 4 6 2 3 1020.0 1020.0 0.0
 
Date/Time
EDT
Temp
°C
App
Temp
°C
Dew
Point
°C
Rel
Hum
%
Delta-T
°C
Wind Press
QNH
hPa
Press
MSL
hPa
Rain since
9am
mm
Dir  Spd
km/h
Gust
km/h
Spd
kts
Gust
kts
06/11:30pm 15.5 17.2 15.3 99 0.1 CALM 0 0 0 0 1020.4 1020.4 0.0
06/11:00pm 15.7 16.4 15.5 99 0.1 NNW 6 6 3 3 1020.8 1020.8 0.0
06/10:30pm 15.6 16.0 15.4 99 0.1 NNW 7 7 4 4 1021.1 1021.1 0.0
06/10:00pm 15.7 17.1 15.5 99 0.1 NNE 2 7 1 4 1021.1 1021.1 0.0
06/09:30pm 15.8 16.3 15.6 99 0.1 NE 7 9 4 5 1021.0 1021.0 0.0
06/09:00pm 16.6 17.6 16.4 99 0.1 NE 6 6 3 3 1021.0 1021.0 0.0
06/08:30pm 16.8 18.6 16.5 98 0.2 ENE 2 6 1 3 1021.0 1021.0 0.0
06/08:00pm 17.2 19.6 16.9 98 0.2 CALM 0 0 0 0 1020.8 1020.8 0.0
06/07:30pm 17.4 18.6 16.8 96 0.4 E 6 7 3 4 1020.6 1020.6 0.0
06/07:00pm 17.3 18.0 16.2 93 0.7 ENE 7 9 4 5 1020.3 1020.3 0.0
06/06:30pm 17.9 18.3 16.2 90 1.0 ENE 9 11 5 6 1020.1 1020.1 0.0
06/06:00pm 18.2 18.4 15.8 86 1.4 ENE 9 11 5 6 1020.2 1020.2 0.0
06/05:30pm 18.3 17.3 14.6 79 2.1 NE 13 17 7 9 1020.1 1020.1 0.0
06/05:00pm 18.5 17.7 15.0 80 2.0 ENE 13 17 7 9 1020.0 1020.0 0.0
06/04:30pm 18.4 17.7 15.3 82 1.8 ENE 13 17 7 9 1019.9 1019.9 0.0
06/04:00pm 18.8 18.8 15.3 80 2.1 ENE 9 13 5 7 1020.0 1020.0 0.0
06/03:30pm 18.4 18.4 15.1 81 1.9 NNE 9 13 5 7 1020.4 1020.4 0.0
06/03:00pm 18.1 17.1 14.6 80 2.0 N 13 19 7 10 1020.6 1020.6 0.0
06/02:30pm 17.7 16.1 15.0 84 1.6 N 17 24 9 13 1021.0 1021.0 0.0
06/02:00pm 17.3 16.4 14.8 85 1.4 N 13 17 7 9 1021.4 1021.4 0.0
06/01:30pm 17.5 16.7 15.1 86 1.4 NNW 13 19 7 10 1021.9 1021.9 0.0
06/01:00pm 17.8 17.3 15.8 88 1.2 NNW 13 19 7 10 1022.2 1022.2 0.0
06/12:30pm 17.2 17.4 16.7 97 0.3 N 11 15 6 8 1022.6 1022.6 0.0
06/12:00pm 16.3 16.6 16.0 98 0.2 N 9 13 5 7 1023.2 1023.2 0.0
06/11:30am 16.1 16.4 15.9 99 0.1 NNE 9 11 5 6 1023.6 1023.6 0.0
06/11:00am 15.8 16.3 15.6 99 0.1 NNE 7 11 4 6 1023.9 1023.9 0.0
06/10:30am 15.5 15.9 15.3 99 0.1 N 7 9 4 5 1024.1 1024.1 0.0
06/10:29am 15.5 15.9 15.3 99 0.1 N 7 9 4 5 1024.1 1024.1 0.0
06/10:00am 15.1 15.9 14.9 99 0.1 NNW 4 7 2 4 1024.1 1024.1 0.0
06/09:30am 14.7 16.2 14.7 100 0.0 CALM 0 0 0 0 1024.1 1024.1 0.0
06/09:00am 14.6 16.1 14.6 100 0.0 CALM 0 0 0 0 1024.1 1024.1 23.2
06/08:30am 14.3 14.5 14.3 100 0.0 W 6 6 3 3 1024.1 1024.1 23.2
06/08:13am 14.2 15.5 14.2 100 0.0 CALM 0 4 0 2 1024.1 1024.1 23.0
06/08:03am 14.2 15.5 14.2 100 0.0 CALM 0 0 0 0 1024.1 1024.1 23.0
06/08:00am 14.1 15.4 14.1 100 0.0 CALM 0 0 0 0 1024.0 1024.0 23.0
06/07:30am 14.0 14.1 14.0 100 0.0 WSW 6 7 3 4 1023.8 1023.8 22.6
06/07:00am 13.9 13.8 13.9 100 0.0 SW 7 9 4 5 1023.5 1023.5 22.6
06/06:49am 13.8 13.3 13.8 100 0.0 SSW 9 11 5 6 1023.3 1023.3 22.6
06/06:30am 13.7 13.5 13.7 100 0.0 SSW 7 9 4 5 1023.2 1023.2 22.6
06/06:00am 13.6 13.6 13.6 100 0.0 SSW 6 7 3 4 1023.2 1023.2 22.6
06/05:30am 13.5 13.3 13.5 100 0.0 SW 7 9 4 5 1022.9 1022.9 22.6
06/05:06am 13.5 13.3 13.5 100 0.0 SW 7 9 4 5 1022.7 1022.7 22.6
06/05:00am 13.6 13.4 13.6 100 0.0 SSW 7 9 4 5 1022.7 1022.7 22.6
06/04:36am 13.6 13.4 13.6 100 0.0 SSW 7 9 4 5 1022.7 1022.7 22.6
06/04:30am 13.6 13.4 13.6 100 0.0 SW 7 9 4 5 1022.7 1022.7 22.6
06/04:00am 13.6 14.7 13.6 100 0.0 CALM 0 0 0 0 1022.8 1022.8 22.4
06/03:33am 13.6 14.7 13.6 100 0.0 CALM 0 0 0 0 1023.0 1023.0 21.8
06/03:30am 13.7 14.9 13.7 100 0.0 CALM 0 0 0 0 1023.0 1023.0 21.6
06/03:21am 13.6 14.7 13.6 100 0.0 CALM 0 0 0 0 1023.0 1023.0 21.6
06/03:17am 13.6 14.7 13.6 100 0.0 CALM 0 0 0 0 1023.1 1023.1 21.2
06/03:08am 13.6 14.7 13.6 100 0.0 CALM 0 0 0 0 1023.1 1023.1 21.2
06/03:00am 13.6 14.7 13.4 99 0.1 CALM 0 0 0 0 1023.1 1023.1 21.0
06/02:48am 13.5 14.5 13.3 99 0.1 CALM 0 0 0 0 1023.2 1023.2 20.8
06/02:47am 13.5 14.5 13.3 99 0.1 CALM 0 0 0 0 1023.2 1023.2 20.8
06/02:30am 13.5 13.8 13.3 99 0.1 SSE 4 7 2 4 1023.4 1023.4 20.2
06/02:22am 13.6 13.5 13.4 99 0.1 S 6 9 3 5 1023.5 1023.5 20.0
06/02:03am 13.6 13.5 13.4 99 0.1 S 6 9 3 5 1023.6 1023.6 19.6
06/02:00am 13.6 13.5 13.4 99 0.1 S 6 9 3 5 1023.6 1023.6 19.6
06/01:53am 13.5 13.4 13.3 99 0.1 S 6 9 3 5 1023.6 1023.6 19.2
06/01:33am 13.6 14.7 13.4 99 0.1 CALM 0 9 0 5 1023.8 1023.8 19.0
06/01:30am 13.6 14.7 13.4 99 0.1 CALM 0 0 0 0 1023.9 1023.9 19.0
06/01:00am 13.9 15.1 13.7 99 0.1 CALM 0 0 0 0 1024.2 1024.2 19.0
06/12:59am 13.9 15.1 13.7 99 0.1 CALM 0 0 0 0 1024.3 1024.3 19.0
06/12:32am 13.9 15.1 13.7 99 0.1 CALM 0 0 0 0 1024.6 1024.6 19.0
06/12:31am 13.9 15.1 13.7 99 0.1 CALM 0 0 0 0 1024.6 1024.6 19.0
06/12:30am 13.9 15.1 13.7 99 0.1 CALM 0 0 0 0 1024.6 1024.6 19.0
06/12:11am 14.0 15.2 13.8 99 0.1 CALM 0 0 0 0 1025.0 1025.0 18.2
06/12:00am 14.0 15.2 13.8 99 0.1 CALM 0 0 0 0 1025.1 1025.1 17.6
 
Date/Time
EDT
Temp
°C
App
Temp
°C
Dew
Point
°C
Rel
Hum
%
Delta-T
°C
Wind Press
QNH
hPa
Press
MSL
hPa
Rain since
9am
mm
Dir  Spd
km/h
Gust
km/h
Spd
kts
Gust
kts
05/11:30pm 14.0 14.8 13.8 99 0.1 SSW 2 6 1 3 1025.4 1025.4 17.0
05/11:26pm 14.0 15.2 13.8 99 0.1 CALM 0 4 0 2 1025.5 1025.5 17.0
05/11:00pm 14.0 15.2 13.8 99 0.1 CALM 0 0 0 0 1025.7 1025.7 16.8
05/10:30pm 13.9 14.7 13.7 99 0.1 S 2 6 1 3 1025.9 1025.9 16.6
05/10:00pm 14.0 15.2 13.8 99 0.1 CALM 0 4 0 2 1025.9 1025.9 16.2
05/09:30pm 14.1 13.6 13.9 99 0.1 SE 9 9 5 5 1025.9 1025.9 15.8
05/09:22pm 14.1 14.0 13.9 99 0.1 SE 7 11 4 6 1026.0 1026.0 15.8
05/09:06pm 14.2 13.8 14.0 99 0.1 SE 9 11 5 6 1026.0 1026.0 15.4
05/09:03pm 14.2 13.8 14.0 99 0.1 SE 9 13 5 7 1026.0 1026.0 15.4
05/09:00pm 14.2 13.8 14.0 99 0.1 SE 9 13 5 7 1026.1 1026.1 15.4
05/08:50pm 14.2 13.4 14.0 99 0.1 SE 11 15 6 8 1026.0 1026.0 14.8
05/08:30pm 14.1 14.0 13.9 99 0.1 SSE 7 9 4 5 1025.8 1025.8 14.0
05/08:00pm 14.0 13.5 13.8 99 0.1 S 9 11 5 6 1025.6 1025.6 13.0
05/07:30pm 14.1 14.2 13.9 99 0.1 S 6 7 3 4 1025.3 1025.3 12.4
05/07:00pm 14.2 14.1 14.0 99 0.1 SSE 7 11 4 6 1025.2 1025.2 12.0
05/06:30pm 14.4 14.4 14.2 99 0.1 S 7 11 4 6 1025.1 1025.1 11.4
05/06:00pm 14.7 14.4 14.5 99 0.1 SSE 9 11 5 6 1025.0 1025.0 10.4
05/05:30pm 14.9 14.7 14.7 99 0.1 SE 9 13 5 7 1024.8 1024.8 9.0
05/05:00pm 14.9 15.1 14.7 99 0.1 SE 7 11 4 6 1024.3 1024.3 8.0
05/04:30pm 15.1 16.7 14.9 99 0.1 CALM 0 0 0 0 1024.2 1024.2 7.2
05/04:13pm 15.1 16.7 14.9 99 0.1 CALM 0 6 0 3 1024.2 1024.2 6.6
05/04:00pm 15.0 16.2 14.8 99 0.1 WSW 2 6 1 3 1024.2 1024.2 6.4
05/03:42pm 15.0 16.6 14.8 99 0.1 CALM 0 4 0 2 1024.3 1024.3 5.8
05/03:30pm 15.0 15.8 14.8 99 0.1 NW 4 7 2 4 1024.4 1024.4 5.6
05/03:00pm 15.1 15.4 14.9 99 0.1 NNW 7 9 4 5 1024.8 1024.8 5.0
05/02:36pm 15.2 16.8 14.9 98 0.2 CALM 0 0 0 0 1025.3 1025.3 4.8
05/02:30pm 15.4 17.1 15.2 99 0.1 CALM 0 0 0 0 1025.3 1025.3 4.6
05/02:00pm 15.0 15.4 14.8 99 0.1 W 6 7 3 4 1025.5 1025.5 4.2
05/01:48pm 15.0 15.8 14.8 99 0.1 WSW 4 7 2 4 1025.6 1025.6 4.0
05/01:30pm 14.9 16.4 14.7 99 0.1 CALM 0 6 0 3 1025.8 1025.8 3.8
05/01:00pm 15.1 15.4 14.9 99 0.1 WSW 7 13 4 7 1026.2 1026.2 3.8
05/12:30pm 14.6 13.9 14.4 99 0.1 SW 11 13 6 7 1026.6 1026.6 3.4
05/12:00pm 14.5 14.5 14.3 99 0.1 SW 7 11 4 6 1026.8 1026.8 3.4
05/11:30am 14.4 14.0 14.2 99 0.1 SW 9 13 5 7 1027.1 1027.1 3.2
05/11:00am 14.2 13.4 14.0 99 0.1 SW 11 17 6 9 1027.4 1027.4 3.2
05/10:30am 14.0 14.8 13.7 98 0.2 ENE 2 7 1 4 1027.7 1027.7 3.2
05/10:08am 14.1 13.3 13.9 99 0.1 ESE 11 17 6 9 1027.8 1027.8 3.0
05/10:00am 13.9 13.0 13.7 99 0.1 SE 11 15 6 8 1027.9 1027.9 3.0
05/09:53am 13.8 12.1 13.6 99 0.1 SE 15 20 8 11 1028.1 1028.1 3.0
05/09:46am 13.7 11.6 13.5 99 0.1 SE 17 20 9 11 1028.1 1028.1 2.4
05/09:35am 13.9 12.6 13.7 99 0.1 SE 13 19 7 10 1028.0 1028.0 2.0
05/09:30am 13.7 12.3 13.5 99 0.1 SSE 13 17 7 9 1028.1 1028.1 1.8
05/09:25am 13.6 12.2 13.4 99 0.1 SSE 13 17 7 9 1028.0 1028.0 1.8
05/09:08am 14.0 13.1 13.8 99 0.1 S 11 15 6 8 1028.0 1028.0 0.8
05/09:04am 14.1 13.6 13.9 99 0.1 S 9 13 5 7 1028.0 1028.0 0.2
05/09:00am 14.0 13.5 13.8 99 0.1 S 9 13 5 7 1028.0 1028.0 3.2
05/08:30am 14.0 13.9 13.8 99 0.1 SSW 7 9 4 5 1027.8 1027.8 2.6
05/08:27am 13.9 13.7 13.7 99 0.1 SSW 7 13 4 7 1027.7 1027.7 2.6
05/08:13am 14.1 13.6 13.9 99 0.1 SSW 9 13 5 7 1027.6 1027.6 2.6
05/08:00am 14.0 13.5 13.8 99 0.1 SSW 9 15 5 8 1027.4 1027.4 2.6
05/07:57am 14.1 13.6 13.9 99 0.1 S 9 15 5 8 1027.3 1027.3 2.2
05/07:56am 14.1 13.6 13.9 99 0.1 S 9 15 5 8 1027.3 1027.3 2.2
05/07:51am 14.1 13.3 13.9 99 0.1 S 11 17 6 9 1027.3 1027.3 2.0
05/07:36am 14.2 13.8 14.0 99 0.1 SSE 9 13 5 7 1027.3 1027.3 1.4
05/07:30am 14.2 13.8 14.0 99 0.1 S 9 13 5 7 1027.2 1027.2 1.2
05/07:00am 14.2 13.8 14.0 99 0.1 S 9 13 5 7 1026.6 1026.6 1.2
05/06:30am 14.2 13.8 14.0 99 0.1 SSW 9 13 5 7 1026.0 1026.0 0.8
05/06:27am 14.2 13.4 14.0 99 0.1 SSW 11 15 6 8 1025.9 1025.9 0.6
05/06:20am 14.2 13.0 14.0 99 0.1 SSW 13 17 7 9 1025.6 1025.6 0.6
05/06:04am 14.2 13.4 14.0 99 0.1 S 11 20 6 11 1025.6 1025.6 0.6
05/06:00am 14.3 13.5 14.1 99 0.1 SSW 11 13 6 7 1025.5 1025.5 0.6
05/05:30am 14.5 13.4 14.2 98 0.2 S 13 19 7 10 1025.1 1025.1 0.6
05/05:00am 15.1 14.1 14.5 96 0.3 SSE 13 19 7 10 1025.0 1025.0 0.0
05/04:30am 15.4 14.0 14.6 95 0.5 S 15 19 8 10 1024.9 1024.9 0.0
05/04:00am 15.4 15.3 14.9 97 0.3 S 9 15 5 8 1024.8 1024.8 0.0
05/03:30am 15.1 14.5 14.6 97 0.3 SSW 11 13 6 7 1024.6 1024.6 0.0
05/03:00am 15.3 15.1 14.8 97 0.3 SSW 9 13 5 7 1024.9 1024.9 0.0
05/02:30am 15.4 15.2 14.8 96 0.3 SSW 9 13 5 7 1025.2 1025.2 0.0
05/02:00am 15.7 15.9 14.6 93 0.6 SSW 7 9 4 5 1025.1 1025.1 0.0
05/01:30am 16.0 16.3 14.5 91 0.9 SW 6 7 3 4 1025.4 1025.4 0.0
05/01:00am 16.0 16.1 14.5 91 0.9 SW 7 7 4 4 1025.6 1025.6 0.0
05/12:30am 16.1 16.3 14.3 89 1.0 SW 6 6 3 3 1025.3 1025.3 0.0
05/12:00am 16.3 16.3 14.3 88 1.1 S 7 11 4 6 1024.9 1024.9 0.0
 
Date/Time
EDT
Temp
°C
App
Temp
°C
Dew
Point
°C
Rel
Hum
%
Delta-T
°C
Wind Press
QNH
hPa
Press
MSL
hPa
Rain since
9am
mm
Dir  Spd
km/h
Gust
km/h
Spd
kts
Gust
kts
04/11:30pm 16.4 16.0 14.1 86 1.3 SSW 9 13 5 7 1025.2 1025.2 0.0
04/11:00pm 16.3 16.2 13.8 85 1.4 SSW 7 9 4 5 1025.0 1025.0 0.0
04/10:30pm 16.4 15.9 13.7 84 1.5 SSW 9 9 5 5 1024.7 1024.7 0.0
04/10:00pm 16.7 17.7 13.2 80 1.9 CALM 0 0 0 0 1024.7 1024.7 0.0
04/09:30pm 16.9 17.8 12.8 77 2.3 CALM 0 0 0 0 1024.9 1024.9 0.0
04/09:00pm 17.2 16.9 12.7 75 2.5 S 6 7 3 4 1024.6 1024.6 0.0
04/08:30pm 17.4 16.4 12.3 72 2.8 SSW 9 9 5 5 1024.1 1024.1 0.0
04/08:00pm 17.8 17.0 11.6 67 3.4 S 7 11 4 6 1023.6 1023.6 0.0
04/07:30pm 18.0 16.3 11.3 65 3.6 SSE 11 15 6 8 1023.0 1023.0 0.0
04/07:00pm 18.4 15.8 10.8 61 4.1 SSE 15 24 8 13 1022.4 1022.4 0.0
04/06:30pm 18.9 15.5 11.2 61 4.2 SSE 20 30 11 16 1021.6 1021.6 0.0
04/06:00pm 19.8 15.7 11.6 59 4.5 SSE 24 39 13 21 1021.0 1021.0 0.0
04/05:30pm 20.9 16.1 11.5 55 5.2 SE 28 33 15 18 1020.1 1020.1 0.0
04/05:19pm 21.8 16.9 10.0 47 6.4 SE 26 39 14 21 1019.8 1019.8 0.0
04/05:00pm 23.3 22.8 10.7 45 7.0 WNW 4 9 2 5 1019.3 1019.3 0.0
04/04:30pm 23.4 22.3 9.8 42 7.4 NNW 6 13 3 7 1019.2 1019.2 0.0
04/04:00pm 23.9 21.8 9.9 41 7.6 NNE 11 19 6 10 1019.2 1019.2 0.0
04/03:30pm 24.0 23.2 9.6 40 7.8 ENE 4 11 2 6 1019.2 1019.2 0.0
04/03:00pm 23.8 22.9 9.4 40 7.8 NNE 4 11 2 6 1019.3 1019.3 0.0
04/02:30pm 23.6 21.8 9.6 41 7.6 NE 9 22 5 12 1019.7 1019.7 0.0
04/02:00pm 22.9 20.4 9.7 43 7.1 NNE 13 19 7 10 1020.1 1020.1 0.0
04/01:30pm 23.3 22.8 12.0 49 6.4 SE 6 15 3 8 1020.3 1020.3 0.0
04/01:00pm 22.0 20.4 11.4 51 5.9 NE 11 15 6 8 1020.6 1020.6 0.0
04/12:30pm 21.6 20.2 11.0 51 5.8 ENE 9 17 5 9 1021.0 1021.0 0.0
04/12:00pm 21.1 20.6 12.5 58 4.8 NE 7 11 4 6 1021.5 1021.5 0.0
04/11:30am 19.7 19.0 11.5 59 4.5 ENE 6 11 3 6 1021.9 1021.9 0.0
04/11:00am 18.8 18.6 11.9 64 3.8 NNE 4 9 2 5 1022.4 1022.4 0.0
04/10:30am 16.7 16.1 11.6 72 2.8 N 6 11 3 6 1022.5 1022.5 0.0
04/10:00am 15.5 14.6 11.5 77 2.1 N 7 11 4 6 1022.5 1022.5 0.0
04/09:30am 14.4 13.6 11.6 83 1.5 ENE 7 9 4 5 1022.5 1022.5 0.0
04/09:00am 13.6 12.7 11.5 87 1.1 ESE 7 9 4 5 1022.6 1022.6 0.0
04/08:30am 12.8 13.4 12.0 95 0.4 CALM 0 0 0 0 1022.7 1022.7 0.0
04/08:00am 10.5 10.6 10.3 99 0.1 CALM 0 0 0 0 1022.7 1022.7 0.0
04/07:30am 9.3 9.1 9.2 99 0.0 CALM 0 0 0 0 1022.5 1022.5 0.0
04/07:00am 8.0 7.5 7.9 99 0.0 CALM 0 0 0 0 1022.0 1022.0 0.0
04/06:30am 7.3 6.7 7.2 99 0.0 CALM 0 0 0 0 1021.6 1021.6 0.0
04/06:00am 7.5 6.5 7.4 99 0.0 SSW 2 6 1 3 1021.2 1021.2 0.0
04/05:30am 8.0 7.5 7.9 99 0.0 CALM 0 0 0 0 1021.2 1021.2 0.0
04/05:00am 8.3 7.9 8.2 99 0.0 CALM 0 0 0 0 1021.0 1021.0 0.0
04/04:30am 8.4 8.0 8.3 99 0.0 CALM 0 0 0 0 1021.0 1021.0 0.0
04/04:00am 9.0 8.8 8.9 99 0.0 CALM 0 0 0 0 1020.6 1020.6 0.0
04/03:30am 9.5 9.4 9.4 99 0.0 CALM 0 0 0 0 1020.8 1020.8 0.0
04/03:00am 9.0 8.7 8.7 98 0.1 CALM 0 0 0 0 1020.8 1020.8 0.0
04/02:30am 9.2 9.0 8.9 98 0.1 CALM 0 0 0 0 1020.8 1020.8 0.0
04/02:00am 9.5 9.3 9.2 98 0.1 CALM 0 0 0 0 1021.1 1021.1 0.0
04/01:30am 10.2 10.2 9.9 98 0.2 CALM 0 0 0 0 1021.2 1021.2 0.0
04/01:00am 10.5 10.6 10.2 98 0.2 CALM 0 0 0 0 1021.1 1021.1 0.0

Latest Capital City Observations: Canberra | Sydney | Melbourne | Brisbane | Adelaide | Perth | Hobart | Darwin

Other formats

Comma delimited format used in spreadsheet applications
http://www.bom.gov.au/fwo/IDN60901/IDN60901.95753.axf

JavaScript Object Notation format (JSON) in row-major order
http://www.bom.gov.au/fwo/IDN60901/IDN60901.95753.json

Data quality

Most of these data are generated automatically and are frequently updated. Quality checks on data are not normally performed. It is possible for incorrect values to appear. Refer to information at About Latest Weather Observations and please check the disclaimer before using these data.